aviador You're here:

KSLE Decoded Metar

SALEM in OR, USA
Report Time2018-04-26 12:56:00
UTC Time2018-04-26 13:15:48
Flight Rules vfr VFR
Wind190° at 03 kt
W.Decomp.*RWY 16: 2.9 kt HW 0.7 kt RCW
RWY 13: 2.2 kt HW 2.0 kt RCW
W.Rank190° ranks 3
Current wind is below 190° avg. (8.1)
Visibility9999 m
Phenomena:N/A
Clouds:N/A
Expected CloudBase > 1,200 ft AGL from Temp-Dew spread
CeilingNone
Temp10°C (ISA -5)
Dew Point07°C (82% RH)
AAT8.2°C
QNH1014 hPa
Density Alt-256 ft
Elevation194 ft
Report Wrong Elevation
Raw Report
KSLE 261256Z AUTO 19003KT 10SM CLR 10/07 A2994 RMK AO2 SLP138
T01000067=

Extra information for KSLE:More info

Metar Taf Metar & Taf Last 4 Metars F.Rules Stats Wind Profile Meteogram Temp Stats Airport Information Weather charts Add Link Nearby VenuesMetar ALERT Operation Metar Decoded Social comments

AIRNAV info for KSLE